Time;durP1;ratioP1;P1;durP2;ratioP2;P2;SDS_P1;SDS_P2;PMS_P1;PMS_P2;Temp;Humidity;BMP_temperature;BMP_pressure;BME280_temperature;BME280_humidity;BME280_pressure;Samples;Min_cycle;Max_cycle;Signal;HPM_P1;HPM_P2
2021/05/05 00:02:01;;;;;;;5.05;2.50;;;4.60;99.90;;;;;;5107026;28;19923;-53
2021/05/05 00:04:27;;;;;;;9.10;2.97;;;4.60;99.90;;;;;;5101026;28;20128;-57
2021/05/05 00:06:58;;;;;;;9.52;2.83;;;4.70;99.90;;;;;;5102485;28;20040;-59
2021/05/05 00:09:24;;;;;;;5.20;2.97;;;4.70;99.90;;;;;;5101348;28;20067;-59
2021/05/05 00:11:50;;;;;;;4.30;2.70;;;4.70;99.90;;;;;;5100262;28;20659;-60
2021/05/05 00:14:17;;;;;;;9.15;3.20;;;4.80;99.90;;;;;;5101239;28;20039;-57
2021/05/05 00:16:44;;;;;;;8.10;3.10;;;4.80;99.90;;;;;;5100280;28;20054;-60
2021/05/05 00:19:10;;;;;;;9.77;3.45;;;4.90;99.90;;;;;;5087746;28;20039;-57
2021/05/05 00:21:36;;;;;;;7.35;2.83;;;4.90;99.90;;;;;;5088134;28;20391;-58
2021/05/05 00:24:02;;;;;;;7.07;2.95;;;4.80;99.90;;;;;;5086394;28;20028;-57
2021/05/05 00:26:28;;;;;;;8.57;3.10;;;4.90;99.90;;;;;;5088147;28;20496;-53
2021/05/05 00:28:53;;;;;;;6.70;3.17;;;4.90;99.90;;;;;;5088359;28;20085;-57
2021/05/05 00:31:19;;;;;;;7.50;3.03;;;4.90;99.90;;;;;;5087520;28;20035;-56
2021/05/05 00:33:45;;;;;;;;;;;4.90;99.90;;;;;;5088636;28;20523;-56
2021/05/05 00:36:11;;;;;;;8.75;3.58;;;4.90;99.90;;;;;;5087112;28;19994;-59
2021/05/05 00:38:37;;;;;;;6.70;3.60;;;4.80;99.90;;;;;;5089031;28;20135;-55
2021/05/05 00:41:08;;;;;;;12.25;3.65;;;4.70;99.90;;;;;;5088629;28;20067;-59
2021/05/05 00:43:34;;;;;;;7.75;3.72;;;4.70;99.90;;;;;;5088499;28;20075;-57
2021/05/05 00:46:00;;;;;;;10.02;3.92;;;4.60;99.90;;;;;;5087542;28;20052;-57
2021/05/05 00:48:26;;;;;;;7.00;4.00;;;4.60;99.90;;;;;;5087748;28;20771;-53
2021/05/05 00:50:51;;;;;;;7.93;3.70;;;4.60;99.90;;;;;;5087545;28;20040;-58
2021/05/05 00:53:17;;;;;;;8.10;3.42;;;4.60;99.90;;;;;;5087313;28;20408;-55
2021/05/05 00:55:42;;;;;;;;;;;4.60;99.90;;;;;;5088135;28;20043;-56
2021/05/05 00:58:08;;;;;;;9.73;3.70;;;4.50;99.90;;;;;;5088171;28;19935;-59
2021/05/05 01:00:34;;;;;;;8.95;3.22;;;4.50;99.90;;;;;;5085754;28;20530;-58
2021/05/05 01:03:00;;;;;;;5.72;2.97;;;4.60;99.90;;;;;;5085645;28;20130;-59
2021/05/05 01:05:26;;;;;;;;;;;4.60;99.90;;;;;;5086870;28;20408;-59
2021/05/05 01:07:51;;;;;;;7.55;3.13;;;4.70;99.90;;;;;;5087958;28;19916;-59
2021/05/05 01:10:18;;;;;;;8.57;3.35;;;4.70;99.90;;;;;;5087200;28;20032;-58
2021/05/05 01:12:43;;;;;;;10.95;3.95;;;4.70;99.90;;;;;;5086884;28;20048;-53
2021/05/05 01:15:11;;;;;;;6.65;3.10;;;4.80;99.90;;;;;;5086393;28;20046;-57
2021/05/05 01:17:36;;;;;;;4.80;3.20;;;4.80;99.90;;;;;;5087106;28;20040;-54
2021/05/05 01:20:04;;;;;;;8.18;3.72;;;4.80;99.90;;;;;;5087643;28;20757;-55
2021/05/05 01:22:29;;;;;;;6.43;3.60;;;4.70;99.90;;;;;;5086935;28;20040;-59
2021/05/05 01:24:55;;;;;;;5.30;3.13;;;4.70;99.90;;;;;;5086280;28;20893;-57
2021/05/05 01:27:21;;;;;;;7.15;3.70;;;4.60;99.90;;;;;;5087248;28;20048;-56
2021/05/05 01:29:48;;;;;;;;;;;4.60;99.90;;;;;;5086910;28;20143;-58
2021/05/05 01:32:14;;;;;;;8.35;3.78;;;4.50;99.90;;;;;;5085984;28;19916;-57
2021/05/05 01:34:39;;;;;;;;;;;4.50;99.90;;;;;;5084455;28;20591;-59
2021/05/05 01:37:06;;;;;;;6.95;3.53;;;4.40;99.90;;;;;;5087643;28;19924;-57
2021/05/05 01:39:31;;;;;;;9.63;3.67;;;4.40;99.90;;;;;;5087038;28;20128;-59
2021/05/05 01:41:57;;;;;;;5.05;3.53;;;4.40;99.90;;;;;;5087398;28;20040;-57
2021/05/05 01:44:34;;;;;;;;;;;4.40;99.90;;;;;;5086285;28;20051;-59
2021/05/05 01:47:00;;;;;;;7.73;4.03;;;4.30;99.90;;;;;;5086445;28;19963;-59
2021/05/05 01:49:26;;;;;;;6.55;3.00;;;4.30;99.90;;;;;;5089796;28;20338;-58
2021/05/05 01:51:54;;;;;;;5.95;3.22;;;4.30;99.90;;;;;;5087018;28;20051;-57
2021/05/05 01:54:21;;;;;;;4.93;3.20;;;4.20;99.90;;;;;;5085293;28;20047;-58
2021/05/05 01:56:47;;;;;;;5.97;3.05;;;4.20;99.90;;;;;;5086681;28;20044;-56
2021/05/05 01:59:13;;;;;;;6.32;3.70;;;4.20;99.90;;;;;;5085519;28;20039;-60
2021/05/05 02:01:38;;;;;;;7.05;3.15;;;4.20;99.90;;;;;;5087354;28;20119;-57
2021/05/05 02:04:04;;;;;;;;;;;4.20;99.90;;;;;;5084397;28;20028;-58
2021/05/05 02:06:30;;;;;;;10.02;3.38;;;4.20;99.90;;;;;;5086994;28;19931;-58
2021/05/05 02:08:56;;;;;;;;;;;4.20;99.90;;;;;;5088337;28;20032;-56
2021/05/05 02:11:22;;;;;;;8.32;3.55;;;4.20;99.90;;;;;;5085755;28;20319;-55
2021/05/05 02:13:48;;;;;;;7.22;3.40;;;4.10;99.90;;;;;;5080200;28;20105;-56
2021/05/05 02:16:14;;;;;;;4.47;2.95;;;4.10;99.90;;;;;;5085477;28;20098;-58
2021/05/05 02:18:40;;;;;;;5.22;3.17;;;4.10;99.90;;;;;;5086777;28;20515;-57
2021/05/05 02:21:06;;;;;;;10.07;3.30;;;4.20;99.90;;;;;;5086574;28;20863;-57
2021/05/05 02:23:34;;;;;;;8.93;3.20;;;4.20;99.90;;;;;;5085718;28;20044;-56
2021/05/05 02:26:01;;;;;;;6.05;3.60;;;4.10;99.90;;;;;;5086551;28;20498;-58
2021/05/05 02:28:27;;;;;;;9.00;3.45;;;4.20;99.90;;;;;;5086475;28;20040;-56
2021/05/05 02:30:54;;;;;;;6.00;2.78;;;4.20;99.90;;;;;;5086091;28;20040;-56
2021/05/05 02:33:20;;;;;;;6.97;3.45;;;4.20;99.90;;;;;;5083920;28;20813;-55
2021/05/05 02:35:45;;;;;;;6.82;3.80;;;4.30;99.90;;;;;;5086100;28;20169;-58
2021/05/05 02:38:11;;;;;;;9.35;4.50;;;4.30;99.90;;;;;;5085974;28;20408;-58
2021/05/05 02:40:37;;;;;;;6.82;3.92;;;4.30;99.90;;;;;;5085392;28;20119;-59
2021/05/05 02:43:03;;;;;;;10.30;4.45;;;4.30;99.90;;;;;;5086317;28;20043;-59
2021/05/05 02:45:29;;;;;;;7.93;4.45;;;4.40;99.90;;;;;;5084935;28;20093;-53
2021/05/05 02:47:55;;;;;;;10.73;4.72;;;4.30;99.90;;;;;;5085508;28;20519;-54
2021/05/05 02:50:20;;;;;;;;;;;4.40;99.90;;;;;;5085487;28;20024;-59
2021/05/05 02:52:46;;;;;;;7.80;3.88;;;4.40;99.90;;;;;;5086689;28;19951;-60
2021/05/05 02:55:11;;;;;;;6.13;3.95;;;4.40;99.90;;;;;;5086333;28;20543;-56
2021/05/05 02:57:37;;;;;;;10.15;4.45;;;4.40;99.90;;;;;;5085665;28;20051;-55
2021/05/05 03:00:07;;;;;;;10.98;4.57;;;4.40;99.90;;;;;;5086367;28;20032;-59
2021/05/05 03:02:32;;;;;;;7.35;3.95;;;4.30;99.90;;;;;;5086580;28;20407;-59
2021/05/05 03:04:58;;;;;;;5.80;3.92;;;4.40;99.90;;;;;;5085328;28;20032;-58
2021/05/05 03:07:23;;;;;;;7.63;3.88;;;4.30;99.90;;;;;;5085148;28;20044;-56
2021/05/05 03:09:49;;;;;;;5.50;4.28;;;4.30;99.90;;;;;;5085148;28;20100;-58
2021/05/05 03:12:14;;;;;;;;;;;4.30;99.90;;;;;;5085636;28;20099;-58
2021/05/05 03:14:40;;;;;;;8.38;4.30;;;4.20;99.90;;;;;;5086056;28;19919;-60
2021/05/05 03:17:05;;;;;;;;;;;4.20;99.90;;;;;;5086255;28;20070;-59
2021/05/05 03:19:31;;;;;;;6.18;4.30;;;4.30;99.90;;;;;;5085366;28;19970;-60
2021/05/05 03:21:56;;;;;;;8.07;4.05;;;4.20;99.90;;;;;;5085508;28;20117;-58
2021/05/05 03:24:23;;;;;;;7.85;4.78;;;4.10;99.90;;;;;;5085441;28;20036;-58
2021/05/05 03:26:49;;;;;;;6.75;4.20;;;4.10;99.90;;;;;;5085763;28;20552;-60
2021/05/05 03:29:16;;;;;;;6.90;4.15;;;4.10;99.90;;;;;;5086274;28;20036;-59
2021/05/05 03:31:42;;;;;;;8.60;4.93;;;4.20;99.90;;;;;;5086221;28;20040;-59
2021/05/05 03:34:08;;;;;;;7.20;4.78;;;4.20;99.90;;;;;;5084542;28;20032;-57
2021/05/05 03:36:34;;;;;;;7.10;4.93;;;4.20;99.90;;;;;;5085696;28;20593;-59
2021/05/05 03:39:00;;;;;;;;;;;4.30;99.90;;;;;;5086495;28;20074;-56
2021/05/05 03:41:26;;;;;;;6.68;4.82;;;4.30;99.90;;;;;;5086288;28;19920;-57
2021/05/05 03:43:52;;;;;;;8.48;6.07;;;4.30;99.90;;;;;;5084955;28;20044;-59
2021/05/05 03:46:17;;;;;;;10.52;5.70;;;4.40;99.90;;;;;;5085027;28;20083;-59
2021/05/05 03:48:43;;;;;;;12.07;5.68;;;4.40;99.90;;;;;;5086191;28;20036;-58
2021/05/05 03:51:09;;;;;;;13.18;5.80;;;4.40;99.90;;;;;;5085564;28;20036;-56
2021/05/05 03:53:35;;;;;;;7.80;5.13;;;4.30;99.90;;;;;;5087386;28;20078;-51
2021/05/05 03:56:00;;;;;;;9.00;5.65;;;4.30;99.90;;;;;;5088968;28;20504;-57
2021/05/05 03:58:26;;;;;;;10.35;5.65;;;4.30;99.90;;;;;;5090352;28;20070;-60
2021/05/05 04:00:52;;;;;;;7.43;4.95;;;4.30;99.90;;;;;;5089538;28;20040;-56
2021/05/05 04:03:18;;;;;;;6.13;4.30;;;4.30;99.90;;;;;;5080547;28;20062;-55
2021/05/05 04:05:44;;;;;;;7.93;4.40;;;4.30;99.90;;;;;;5077453;28;20128;-57
2021/05/05 04:08:09;;;;;;;7.32;4.10;;;4.30;99.90;;;;;;5069214;28;20131;-60
2021/05/05 04:10:35;;;;;;;12.73;4.82;;;4.30;99.90;;;;;;5077422;28;20097;-59
2021/05/05 04:13:02;;;;;;;9.80;4.35;;;4.30;99.90;;;;;;5068595;28;20132;-59
2021/05/05 04:15:28;;;;;;;5.97;3.92;;;4.30;99.90;;;;;;5067861;28;20062;-59
2021/05/05 04:17:53;;;;;;;5.85;3.08;;;4.30;99.90;;;;;;5069696;28;20040;-57
2021/05/05 04:20:20;;;;;;;8.20;4.45;;;4.40;99.90;;;;;;5069272;28;20044;-59
2021/05/05 04:22:46;;;;;;;7.90;3.72;;;4.30;99.90;;;;;;5067483;28;20189;-58
2021/05/05 04:25:13;;;;;;;6.18;3.88;;;4.40;99.90;;;;;;5068131;28;20049;-57
2021/05/05 04:27:40;;;;;;;4.80;3.53;;;4.40;99.90;;;;;;5068420;28;20496;-63
2021/05/05 04:30:07;;;;;;;7.70;3.90;;;4.40;99.90;;;;;;5068324;28;20036;-59
2021/05/05 04:32:33;;;;;;;7.28;3.67;;;4.50;99.90;;;;;;5067070;28;20048;-58
2021/05/05 04:34:59;;;;;;;6.28;3.92;;;4.50;99.90;;;;;;5076317;28;20086;-61
2021/05/05 04:37:24;;;;;;;7.40;4.65;;;4.50;99.90;;;;;;5069559;28;20040;-58
2021/05/05 04:39:50;;;;;;;7.72;3.92;;;4.50;99.90;;;;;;5068633;28;20105;-58
2021/05/05 04:42:15;;;;;;;5.32;3.90;;;4.50;99.90;;;;;;5068185;28;20542;-60
2021/05/05 04:44:41;;;;;;;7.00;3.90;;;4.50;99.90;;;;;;5068434;28;20055;-58
2021/05/05 04:47:07;;;;;;;6.22;3.83;;;4.50;99.90;;;;;;5068409;28;20041;-58
2021/05/05 04:49:32;;;;;;;6.63;3.90;;;4.40;99.90;;;;;;5076430;28;20571;-59
2021/05/05 04:51:58;;;;;;;6.63;4.15;;;4.50;99.90;;;;;;5073472;28;20029;-60
2021/05/05 04:54:23;;;;;;;;;;;4.50;99.90;;;;;;5069578;28;20101;-58
2021/05/05 04:56:49;;;;;;;9.00;3.92;;;4.50;99.90;;;;;;5068822;28;19916;-58
2021/05/05 04:59:15;;;;;;;5.97;3.70;;;4.40;99.90;;;;;;5068651;28;20133;-59
2021/05/05 05:01:41;;;;;;;7.57;4.03;;;4.50;99.90;;;;;;5068046;28;20040;-58
2021/05/05 05:04:07;;;;;;;10.45;4.28;;;4.50;99.90;;;;;;5075666;28;20064;-58
2021/05/05 05:06:32;;;;;;;8.80;3.72;;;4.50;99.90;;;;;;5084309;28;20131;-58
2021/05/05 05:08:58;;;;;;;7.43;4.53;;;4.50;99.90;;;;;;5087830;28;20048;-54
2021/05/05 05:11:23;;;;;;;;;;;4.50;99.90;;;;;;5089084;28;20032;-59
2021/05/05 05:13:49;;;;;;;5.57;4.22;;;4.60;99.90;;;;;;5087348;28;19923;-59
2021/05/05 05:16:14;;;;;;;6.63;4.13;;;4.80;99.90;;;;;;5087184;28;20680;-55
2021/05/05 05:18:40;;;;;;;;;;;4.90;99.90;;;;;;5088630;28;20032;-59
2021/05/05 05:21:06;;;;;;;8.20;4.53;;;5.00;99.90;;;;;;5088627;28;19923;-58
2021/05/05 05:23:33;;;;;;;7.32;4.30;;;5.00;99.90;;;;;;5087530;28;20056;-59
2021/05/05 05:25:59;;;;;;;9.43;4.60;;;5.00;99.90;;;;;;5086979;28;20534;-57
2021/05/05 05:28:24;;;;;;;;;;;5.00;99.90;;;;;;5088481;28;20031;-57
2021/05/05 05:30:50;;;;;;;8.77;4.53;;;4.80;99.90;;;;;;5086206;28;20006;-56
2021/05/05 05:33:16;;;;;;;6.95;3.80;;;4.70;99.90;;;;;;5080037;28;20114;-57
2021/05/05 05:35:42;;;;;;;10.02;4.80;;;4.70;99.90;;;;;;5075419;28;20532;-56
2021/05/05 05:38:07;;;;;;;;;;;4.80;99.90;;;;;;5067263;28;20076;-58
2021/05/05 05:40:34;;;;;;;9.00;4.30;;;4.70;99.90;;;;;;5068474;28;19917;-58
2021/05/05 05:42:59;;;;;;;7.55;4.78;;;4.70;99.90;;;;;;5066433;28;20047;-54
2021/05/05 05:45:25;;;;;;;6.55;4.32;;;4.90;99.90;;;;;;5066202;28;20036;-58
2021/05/05 05:47:51;;;;;;;7.03;4.45;;;4.90;99.90;;;;;;5069599;28;20071;-59
2021/05/05 05:50:17;;;;;;;7.15;3.85;;;5.00;99.90;;;;;;5076404;28;20036;-55
2021/05/05 05:52:43;;;;;;;5.57;4.15;;;4.90;99.90;;;;;;5085278;28;20076;-59
2021/05/05 05:55:09;;;;;;;;;;;5.00;99.90;;;;;;5086963;28;20543;-55
2021/05/05 05:57:35;;;;;;;6.07;4.25;;;5.00;99.90;;;;;;5073344;28;20261;-60
2021/05/05 06:00:00;;;;;;;6.68;4.53;;;5.20;99.90;;;;;;5065399;28;20067;-56
2021/05/05 06:02:26;;;;;;;8.13;4.30;;;5.60;99.90;;;;;;5061728;28;20128;-60
2021/05/05 06:04:51;;;;;;;;;;;5.80;99.90;;;;;;5076978;28;20040;-59
2021/05/05 06:07:17;;;;;;;8.48;4.10;;;5.90;99.90;;;;;;5081242;28;19956;-60
2021/05/05 06:09:43;;;;;;;7.80;3.67;;;6.20;99.90;;;;;;5078982;28;20089;-56
2021/05/05 06:12:08;;;;;;;;;;;6.30;99.80;;;;;;5086361;28;20445;-59
2021/05/05 06:14:34;;;;;;;5.93;3.05;;;6.70;99.90;;;;;;5086039;28;20548;-54
2021/05/05 06:17:00;;;;;;;;;;;7.30;99.00;;;;;;5087169;28;20161;-56
2021/05/05 06:19:25;;;;;;;6.30;3.70;;;7.40;96.90;;;;;;5086050;28;19969;-57
2021/05/05 06:21:51;;;;;;;;;;;7.80;97.40;;;;;;5080880;22;20095;-53
2021/05/05 06:24:16;;;;;;;8.38;4.18;;;7.50;97.40;;;;;;5060549;28;19921;-55
2021/05/05 06:26:42;;;;;;;;;;;7.00;97.90;;;;;;5047677;28;20041;-56
2021/05/05 06:29:07;;;;;;;9.13;4.95;;;6.60;98.80;;;;;;5045794;28;19943;-57
2021/05/05 06:31:36;;;;;;;;;;;6.30;99.70;;;;;;5045562;28;20051;-54
2021/05/05 06:34:01;;;;;;;12.82;5.53;;;6.10;99.90;;;;;;5055493;28;19923;-57
2021/05/05 06:36:27;;;;;;;;;;;5.90;99.90;;;;;;5061939;28;20563;-54
2021/05/05 06:38:52;;;;;;;10.85;4.80;;;5.90;99.90;;;;;;5066658;28;20272;-55
2021/05/05 06:41:18;;;;;;;;;;;5.80;99.90;;;;;;5066278;28;20037;-56
2021/05/05 06:43:43;;;;;;;8.88;5.80;;;5.70;99.90;;;;;;5066553;28;20469;-54
2021/05/05 06:46:09;;;;;;;7.82;4.85;;;5.60;99.90;;;;;;5065877;28;20043;-57
2021/05/05 06:48:35;;;;;;;10.93;5.63;;;5.60;99.90;;;;;;5032571;28;20051;-58
2021/05/05 06:51:00;;;;;;;8.98;5.90;;;5.70;99.90;;;;;;5052669;28;20512;-62
2021/05/05 06:53:26;;;;;;;;;;;5.80;99.90;;;;;;5064977;28;20040;-57
2021/05/05 06:55:51;;;;;;;8.55;5.32;;;5.70;99.90;;;;;;5065504;28;20003;-58
2021/05/05 06:58:18;;;;;;;;;;;5.60;99.90;;;;;;5046404;28;20119;-53
2021/05/05 07:00:44;;;;;;;7.57;4.78;;;5.80;99.90;;;;;;5045736;28;19975;-58
2021/05/05 07:03:10;;;;;;;;;;;5.90;99.90;;;;;;5052920;28;20472;-55
2021/05/05 07:05:36;;;;;;;11.73;4.75;;;6.00;99.90;;;;;;5056190;28;19924;-59
2021/05/05 07:08:01;;;;;;;;;;;5.90;99.90;;;;;;5065967;28;20044;-58
2021/05/05 07:10:27;;;;;;;8.25;4.45;;;5.70;99.90;;;;;;5066358;28;20061;-58
2021/05/05 07:12:52;;;;;;;;;;;5.60;99.90;;;;;;5065831;28;20125;-58
2021/05/05 07:15:18;;;;;;;8.48;4.63;;;5.50;99.90;;;;;;5064980;28;19923;-58
2021/05/05 07:17:43;;;;;;;7.85;5.03;;;5.40;99.90;;;;;;5065249;28;20493;-57
2021/05/05 07:20:09;;;;;;;;;;;5.20;99.90;;;;;;5066723;28;20048;-58
2021/05/05 07:22:35;;;;;;;6.95;4.30;;;5.00;99.90;;;;;;5064856;28;19916;-59
2021/05/05 07:25:00;;;;;;;6.47;3.70;;;4.60;99.90;;;;;;5062096;28;20040;-58
2021/05/05 07:27:26;;;;;;;4.35;3.10;;;4.50;99.90;;;;;;5043168;28;20040;-57
2021/05/05 07:29:52;;;;;;;9.45;3.40;;;4.40;99.90;;;;;;5062910;28;20059;-57
2021/05/05 07:32:17;;;;;;;7.45;4.03;;;4.40;99.90;;;;;;5068926;28;20037;-58
2021/05/05 07:34:43;;;;;;;;;;;4.50;99.90;;;;;;5061569;28;20177;-58
2021/05/05 07:37:15;;;;;;;6.60;3.75;;;4.50;99.90;;;;;;5069770;28;19928;-60
2021/05/05 07:40:01;;;;;;;7.25;4.47;;;4.30;99.90;;;;;;5069394;28;20059;-58
2021/05/05 07:47:40;;;;;;;3.78;2.90;;;4.50;99.90;;;;;;5069040;28;20072;-61
2021/05/05 07:50:09;;;;;;;4.32;3.30;;;4.70;99.90;;;;;;5069009;28;20076;-62
2021/05/05 07:52:36;;;;;;;5.95;3.40;;;5.30;99.90;;;;;;5069282;28;20040;-61
2021/05/05 07:55:02;;;;;;;4.30;3.90;;;6.10;99.90;;;;;;5069032;28;20036;-62
2021/05/05 07:57:28;;;;;;;4.43;2.58;;;7.20;99.90;;;;;;5062100;28;20041;-60
2021/05/05 07:59:53;;;;;;;;;;;9.00;99.90;;;;;;5068126;28;20044;-60
2021/05/05 08:02:19;;;;;;;4.05;2.03;;;10.70;96.30;;;;;;5067641;28;19923;-59
2021/05/05 08:04:51;;;;;;;;;;;12.40;92.60;;;;;;5065698;28;20652;-59
2021/05/05 08:07:21;;;;;;;3.97;1.85;;;13.50;89.60;;;;;;5068454;28;20522;-62
2021/05/05 08:09:47;;;;;;;4.43;1.95;;;14.40;81.90;;;;;;5065681;28;20500;-62
2021/05/05 08:12:13;;;;;;;;;;;14.00;82.30;;;;;;5048399;28;20531;-59
2021/05/05 08:14:40;;;;;;;6.57;2.20;;;13.90;82.70;;;;;;5059769;28;20346;-59
2021/05/05 08:17:07;;;;;;;5.40;2.17;;;13.90;84.50;;;;;;5068280;28;20048;-60
2021/05/05 08:19:34;;;;;;;3.45;2.10;;;13.70;82.90;;;;;;5068869;28;20060;-59
2021/05/05 08:21:59;;;;;;;5.72;2.53;;;12.60;85.50;;;;;;5068138;28;20048;-61
2021/05/05 08:24:27;;;;;;;;;;;11.40;88.90;;;;;;5060964;28;20042;-61
2021/05/05 08:26:53;;;;;;;8.65;3.33;;;10.50;91.80;;;;;;5057477;28;19935;-58
2021/05/05 08:29:19;;;;;;;6.82;3.42;;;9.30;93.20;;;;;;5062938;28;20358;-61
2021/05/05 08:31:45;;;;;;;;;;;8.40;95.90;;;;;;5067315;28;20036;-58
2021/05/05 08:34:11;;;;;;;7.57;3.28;;;7.30;97.90;;;;;;5052635;28;19920;-60
2021/05/05 08:36:36;;;;;;;;;;;6.20;99.30;;;;;;5059679;28;20055;-59
2021/05/05 08:39:03;;;;;;;5.43;2.17;;;5.40;99.90;;;;;;5066515;28;19927;-57
2021/05/05 08:41:30;;;;;;;4.15;2.45;;;4.80;99.90;;;;;;5067307;28;20409;-58
2021/05/05 08:43:55;;;;;;;0.85;0.73;;;4.60;99.90;;;;;;5049938;28;20400;-60
2021/05/05 08:46:21;;;;;;;;;;;4.40;99.90;;;;;;5064603;28;20040;-57
2021/05/05 08:48:48;;;;;;;1.40;0.60;;;4.00;99.90;;;;;;5059271;28;19920;-58
2021/05/05 08:51:14;;;;;;;0.70;0.50;;;4.00;99.90;;;;;;5056740;28;20033;-57
2021/05/05 08:53:41;;;;;;;;;;;3.90;99.90;;;;;;5048067;28;20642;-59
2021/05/05 08:56:08;;;;;;;1.02;0.57;;;3.90;99.90;;;;;;5053051;28;20434;-60
2021/05/05 08:58:34;;;;;;;0.80;0.52;;;3.90;99.90;;;;;;5058082;28;20079;-57
2021/05/05 09:01:00;;;;;;;;;;;3.80;99.90;;;;;;5067862;28;20064;-59
2021/05/05 09:03:33;;;;;;;0.73;0.60;;;3.60;99.90;;;;;;5060099;28;20027;-61
2021/05/05 09:06:00;;;;;;;0.55;0.40;;;3.70;99.90;;;;;;5061472;28;20047;-58
2021/05/05 09:08:30;;;;;;;1.00;0.80;;;3.70;99.90;;;;;;5062395;28;20773;-59
2021/05/05 09:11:00;;;;;;;0.50;0.50;;;3.70;99.90;;;;;;5069176;28;20041;-54
2021/05/05 09:13:48;;;;;;;0.47;0.40;;;3.60;99.90;;;;;;5062469;28;20045;-60
2021/05/05 09:16:16;;;;;;;0.70;0.55;;;3.80;99.90;;;;;;5058113;28;20044;-61
2021/05/05 09:19:02;;;;;;;1.08;0.65;;;3.80;99.90;;;;;;5058606;28;20210;-61
2021/05/05 09:21:30;;;;;;;0.90;0.75;;;3.80;99.90;;;;;;5046486;28;20040;-54
2021/05/05 09:24:28;;;;;;;0.50;0.50;;;3.90;99.90;;;;;;5046910;28;20044;-56
2021/05/05 09:27:14;;;;;;;3.55;2.33;;;4.10;99.90;;;;;;5065206;28;20040;-55
2021/05/05 09:29:48;;;;;;;3.35;2.53;;;4.30;99.90;;;;;;5064097;28;20090;-57
2021/05/05 09:32:16;;;;;;;2.05;1.20;;;4.40;99.90;;;;;;5064125;28;20039;-57
2021/05/05 09:34:42;;;;;;;12.82;7.47;;;4.50;99.90;;;;;;5050958;28;20037;-57
2021/05/05 09:37:10;;;;;;;3.97;1.77;;;4.70;99.90;;;;;;5067183;28;20048;-56
2021/05/05 09:39:39;;;;;;;4.30;1.27;;;4.80;99.90;;;;;;5066448;28;20044;-58
2021/05/05 09:42:17;;;;;;;1.00;0.90;;;4.90;99.90;;;;;;5067239;28;20102;-54
2021/05/05 09:44:57;;;;;;;2.00;1.35;;;4.90;99.90;;;;;;5066617;28;20531;-57
2021/05/05 09:47:24;;;;;;;1.65;1.02;;;5.10;99.90;;;;;;5048981;28;20106;-58
2021/05/05 09:49:50;;;;;;;1.50;1.30;;;5.20;99.90;;;;;;5066419;28;20652;-58
2021/05/05 09:52:23;;;;;;;;;;;5.40;99.90;;;;;;5049117;28;20045;-53
2021/05/05 09:54:58;;;;;;;6.00;3.60;;;5.50;99.90;;;;;;5045548;28;20014;-58
2021/05/05 09:57:26;;;;;;;4.53;3.27;;;5.30;99.90;;;;;;5059814;28;20042;-57
2021/05/05 09:59:57;;;;;;;3.33;2.40;;;5.50;99.90;;;;;;5049338;28;20493;-58
2021/05/05 10:02:25;;;;;;;5.10;2.72;;;5.50;99.90;;;;;;5065272;28;20045;-58
2021/05/05 10:05:06;;;;;;;5.95;3.80;;;5.50;99.90;;;;;;5066451;28;20500;-58
2021/05/05 10:07:56;;;;;;;3.70;2.72;;;5.50;99.90;;;;;;5061480;28;20044;-60
2021/05/05 10:10:25;;;;;;;5.65;3.65;;;5.70;99.90;;;;;;5053249;28;20049;-57
2021/05/05 10:12:51;;;;;;;5.80;3.28;;;5.80;99.90;;;;;;5053768;28;20052;-59
2021/05/05 10:15:17;;;;;;;4.70;3.33;;;5.70;99.90;;;;;;5050427;28;20045;-59
2021/05/05 10:17:47;;;;;;;;;;;5.80;99.90;;;;;;5049673;28;20044;-59
2021/05/05 10:20:16;;;;;;;4.32;2.88;;;6.10;99.90;;;;;;5063018;28;19916;-60
2021/05/05 10:22:42;;;;;;;5.47;3.45;;;6.10;99.90;;;;;;5056627;28;20032;-60
2021/05/05 10:25:09;;;;;;;5.30;3.00;;;6.30;99.90;;;;;;5066472;28;20451;-58
2021/05/05 10:27:37;;;;;;;4.90;3.03;;;6.20;99.90;;;;;;5066391;28;20040;-58
2021/05/05 10:30:05;;;;;;;4.88;2.88;;;6.20;99.90;;;;;;5066325;28;20064;-60
2021/05/05 10:32:33;;;;;;;3.72;2.42;;;6.40;99.90;;;;;;5062638;28;20040;-57
2021/05/05 10:34:59;;;;;;;4.22;3.10;;;6.50;99.90;;;;;;5047626;28;20032;-58
2021/05/05 10:37:45;;;;;;;6.80;4.72;;;6.70;99.90;;;;;;5066407;28;20055;-59
2021/05/05 10:40:16;;;;;;;5.17;2.40;;;7.00;99.90;;;;;;5066078;28;20062;-58
2021/05/05 10:42:59;;;;;;;3.75;2.50;;;6.70;99.90;;;;;;5066690;28;20040;-60
2021/05/05 10:45:40;;;;;;;4.35;2.15;;;6.70;99.90;;;;;;5061009;28;20048;-58
2021/05/05 10:48:10;;;;;;;3.72;2.13;;;6.70;99.90;;;;;;5065287;28;20509;-59
2021/05/05 10:51:05;;;;;;;7.18;2.90;;;6.80;99.90;;;;;;5054987;28;20045;-56
2021/05/05 10:53:30;;;;;;;8.05;2.55;;;6.60;99.90;;;;;;5032139;28;20110;-57
2021/05/05 10:55:58;;;;;;;;;;;6.60;99.90;;;;;;5045015;28;20385;-60
2021/05/05 10:58:25;;;;;;;8.05;3.42;;;6.50;99.90;;;;;;5065863;28;19916;-60
2021/05/05 11:00:55;;;;;;;9.50;3.10;;;6.30;99.90;;;;;;5064569;28;20847;-57
2021/05/05 11:03:42;;;;;;;4.55;2.22;;;6.10;99.90;;;;;;5057902;28;20860;-59
2021/05/05 11:06:30;;;;;;;8.02;3.00;;;5.80;99.90;;;;;;5044206;28;20076;-59
2021/05/05 11:09:15;;;;;;;11.98;2.78;;;5.90;99.90;;;;;;5044980;28;20041;-61
2021/05/05 11:11:42;;;;;;;4.22;2.40;;;6.30;99.90;;;;;;5044967;28;20071;-60
2021/05/05 11:14:32;;;;;;;3.45;2.28;;;6.60;99.90;;;;;;5044477;28;20481;-57
2021/05/05 11:17:02;;;;;;;10.15;2.85;;;6.70;99.90;;;;;;5045062;28;20104;-60
2021/05/05 11:19:42;;;;;;;6.35;2.60;;;6.70;99.90;;;;;;5027665;28;20037;-57
2021/05/05 11:22:23;;;;;;;7.28;3.08;;;6.80;99.90;;;;;;5043738;28;20083;-61
2021/05/05 11:24:50;;;;;;;4.80;2.40;;;7.00;99.90;;;;;;5048152;28;20040;-59
2021/05/05 11:27:18;;;;;;;8.25;2.53;;;7.00;99.90;;;;;;5056588;28;20939;-59
2021/05/05 11:29:51;;;;;;;8.48;2.90;;;6.90;99.90;;;;;;5065599;28;20059;-59
2021/05/05 11:32:23;;;;;;;6.75;2.70;;;6.80;99.90;;;;;;5043872;28;20049;-58
2021/05/05 11:34:50;;;;;;;7.07;3.00;;;6.70;99.90;;;;;;5054969;28;20548;-59
2021/05/05 11:37:27;;;;;;;14.68;3.10;;;6.70;99.90;;;;;;5065261;28;20044;-60
2021/05/05 11:40:13;;;;;;;12.25;3.42;;;6.90;99.90;;;;;;5064805;28;20059;-60
2021/05/05 11:42:39;;;;;;;14.65;7.28;;;6.90;99.90;;;;;;5059669;28;20049;-54
2021/05/05 11:45:22;;;;;;;;;;;6.90;99.90;;;;;;5045234;28;20097;-60
2021/05/05 11:47:48;;;;;;;12.20;4.95;;;6.90;99.90;;;;;;5046216;28;19917;-59
2021/05/05 11:50:15;;;;;;;;;;;7.00;99.90;;;;;;5045100;28;20053;-59
2021/05/05 11:52:43;;;;;;;10.15;5.82;;;7.20;99.90;;;;;;5062567;28;19920;-61
2021/05/05 11:55:09;;;;;;;9.00;3.55;;;7.20;99.90;;;;;;5052679;28;20132;-61
2021/05/05 11:57:35;;;;;;;;;;;7.00;99.90;;;;;;5060105;28;20045;-59
2021/05/05 12:00:28;;;;;;;12.15;3.50;;;7.00;99.90;;;;;;5064170;22;19931;-61
2021/05/05 12:03:05;;;;;;;8.73;3.35;;;6.80;99.90;;;;;;5058919;23;20053;-59
2021/05/05 12:05:36;;;;;;;9.13;3.40;;;7.20;99.90;;;;;;5044044;28;20127;-59
2021/05/05 12:08:09;;;;;;;5.05;2.72;;;7.30;99.90;;;;;;5044407;28;20091;-56
2021/05/05 12:10:51;;;;;;;4.05;2.90;;;7.40;99.90;;;;;;5045013;28;20068;-60
2021/05/05 12:13:25;;;;;;;8.88;2.72;;;7.20;99.90;;;;;;5044505;28;20041;-60
2021/05/05 12:15:59;;;;;;;7.35;2.90;;;7.10;99.90;;;;;;5048887;28;20059;-57
2021/05/05 12:18:36;;;;;;;6.30;2.65;;;7.20;99.90;;;;;;5057243;28;20091;-58
2021/05/05 12:21:07;;;;;;;5.60;3.55;;;7.50;99.90;;;;;;5046814;28;20127;-60
2021/05/05 12:23:42;;;;;;;4.80;3.03;;;7.50;99.90;;;;;;5049355;28;20041;-58
2021/05/05 12:26:19;;;;;;;6.78;3.47;;;7.30;99.90;;;;;;5053383;28;20031;-60
2021/05/05 12:28:47;;;;;;;5.13;3.33;;;7.20;99.90;;;;;;5068041;28;20044;-61
2021/05/05 12:31:15;;;;;;;5.38;2.60;;;7.20;99.90;;;;;;5058872;28;20044;-57
2021/05/05 12:33:42;;;;;;;2.88;2.10;;;7.20;99.90;;;;;;5054132;28;20036;-59
2021/05/05 12:36:11;;;;;;;5.30;2.75;;;7.20;99.90;;;;;;5053288;28;20673;-61
2021/05/05 12:38:43;;;;;;;12.60;3.72;;;7.40;99.90;;;;;;5051710;28;20037;-61
2021/05/05 12:41:17;;;;;;;5.85;3.10;;;7.50;99.90;;;;;;5048140;28;20052;-61
2021/05/05 12:43:54;;;;;;;12.70;3.30;;;7.40;99.90;;;;;;5048422;28;20183;-61
2021/05/05 12:46:25;;;;;;;6.43;2.90;;;7.30;99.90;;;;;;5049746;28;20059;-60
2021/05/05 12:48:53;;;;;;;9.07;2.92;;;7.30;99.90;;;;;;5049100;28;20084;-59
2021/05/05 12:51:22;;;;;;;16.67;4.30;;;7.20;99.90;;;;;;5056126;28;20043;-61
2021/05/05 12:53:58;;;;;;;6.40;2.70;;;7.20;99.90;;;;;;5071910;28;20040;-60
2021/05/05 12:56:45;;;;;;;7.63;3.55;;;7.10;99.90;;;;;;5067229;28;20041;-60
2021/05/05 12:59:14;;;;;;;9.73;3.17;;;7.20;99.90;;;;;;5050588;28;20408;-61
2021/05/05 13:01:40;;;;;;;4.18;2.20;;;7.00;99.90;;;;;;5047087;28;20037;-59
2021/05/05 13:04:05;;;;;;;6.63;3.05;;;6.80;99.90;;;;;;5060009;28;20071;-60
2021/05/05 13:06:41;;;;;;;;;;;6.40;99.90;;;;;;5064429;28;20053;-60
2021/05/05 13:09:20;;;;;;;6.72;2.92;;;6.20;99.90;;;;;;5067739;28;20482;-60
2021/05/05 13:11:50;;;;;;;5.43;2.65;;;6.30;99.90;;;;;;5066820;28;20044;-61
2021/05/05 13:15:08;;;;;;;7.32;3.13;;;6.50;99.90;;;;;;5066227;28;20854;-61
2021/05/05 13:17:39;;;;;;;7.93;3.63;;;6.30;99.90;;;;;;5067669;28;20094;-59
2021/05/05 13:31:37;;;;;;;4.43;1.85;;;6.60;99.90;;;;;;5066557;28;20187;-59